createdAt,value
2022-11-02T00:00:56.371Z,10.77
2022-11-02T00:03:25.870Z,12.00
2022-11-02T00:05:53.871Z,10.50
2022-11-02T00:08:21.832Z,12.02
2022-11-02T00:10:49.864Z,11.85
2022-11-02T00:13:20.691Z,11.45
2022-11-02T00:15:48.852Z,9.55
2022-11-02T00:18:16.992Z,12.82
2022-11-02T00:20:46.390Z,12.13
2022-11-02T00:23:16.044Z,9.48
2022-11-02T00:25:47.091Z,9.60
2022-11-02T00:28:15.862Z,9.98
2022-11-02T00:30:44.251Z,10.45
2022-11-02T00:33:12.622Z,10.30
2022-11-02T00:35:41.451Z,9.75
2022-11-02T00:38:10.911Z,9.43
2022-11-02T00:40:38.971Z,7.97
2022-11-02T00:43:07.241Z,9.27
2022-11-02T00:45:35.283Z,7.32
2022-11-02T00:48:04.927Z,8.20
2022-11-02T00:50:32.900Z,7.85
2022-11-02T00:53:01.103Z,9.63
2022-11-02T00:55:30.512Z,6.90
2022-11-02T00:58:03.336Z,6.53
2022-11-02T01:00:31.641Z,8.30
2022-11-02T01:03:01.800Z,6.20
2022-11-02T01:05:30.503Z,6.57
2022-11-02T01:07:58.641Z,7.90
2022-11-02T01:10:27.640Z,6.82
2022-11-02T01:12:57.041Z,10.57
2022-11-02T01:15:25.151Z,6.10
2022-11-02T01:17:53.132Z,6.50
2022-11-02T01:20:21.431Z,6.90
2022-11-02T01:22:49.351Z,10.93
2022-11-02T01:25:17.962Z,6.15
2022-11-02T01:27:46.391Z,6.00
2022-11-02T01:30:16.071Z,7.40
2022-11-02T01:32:45.480Z,6.70
2022-11-02T01:35:13.472Z,8.65
2022-11-02T01:37:41.691Z,6.25
2022-11-02T01:40:10.911Z,6.60
2022-11-02T01:42:38.941Z,6.18
2022-11-02T01:45:08.082Z,8.32
2022-11-02T01:47:41.191Z,7.05
2022-11-02T01:50:13.408Z,7.45
2022-11-02T01:52:42.021Z,8.23
2022-11-02T01:55:16.658Z,9.18
2022-11-02T01:57:48.741Z,6.32
2022-11-02T02:00:19.460Z,7.40
2022-11-02T02:02:55.076Z,8.65
2022-11-02T02:05:24.661Z,7.70
2022-11-02T02:07:53.610Z,6.72
2022-11-02T02:10:21.721Z,8.25
2022-11-02T02:12:50.490Z,10.13
2022-11-02T02:15:22.531Z,7.18
2022-11-02T02:17:59.571Z,8.88
2022-11-02T02:20:47.700Z,6.53
2022-11-02T02:23:37.890Z,9.15
2022-11-02T02:26:38.891Z,8.75
2022-11-02T02:29:20.009Z,6.78
2022-11-02T02:31:56.740Z,8.00
2022-11-02T02:34:31.050Z,7.22
2022-11-02T02:37:06.968Z,6.90
2022-11-02T02:39:43.890Z,5.20
2022-11-02T02:42:18.040Z,6.15
2022-11-02T02:44:58.529Z,7.53
2022-11-02T02:47:30.297Z,7.15
2022-11-02T02:50:06.131Z,6.22
2022-11-02T02:52:36.380Z,9.18
2022-11-02T02:57:41.179Z,10.45
2022-11-02T03:00:17.581Z,8.93
2022-11-02T03:03:03.459Z,7.40
2022-11-02T03:05:34.589Z,5.95
2022-11-02T03:08:09.269Z,7.80
2022-11-02T03:10:46.792Z,7.47
2022-11-02T03:13:32.303Z,6.90
2022-11-02T03:16:07.784Z,6.35
2022-11-02T03:18:46.689Z,7.38
2022-11-02T03:21:32.929Z,7.22
2022-11-02T03:24:08.190Z,9.80
2022-11-02T03:26:46.829Z,7.63
2022-11-02T03:29:19.890Z,10.48
2022-11-02T03:31:56.707Z,6.32
2022-11-02T03:34:28.589Z,7.00
2022-11-02T03:37:04.026Z,8.00
2022-11-02T03:39:38.510Z,9.13
2022-11-02T03:42:09.759Z,7.38
2022-11-02T03:44:40.368Z,6.78
2022-11-02T03:47:16.648Z,8.27
2022-11-02T03:49:47.158Z,7.45
2022-11-02T03:52:21.639Z,6.60
2022-11-02T03:54:59.239Z,6.85
2022-11-02T03:57:32.980Z,5.72
2022-11-02T04:00:08.394Z,7.15
2022-11-02T04:02:47.477Z,7.47
2022-11-02T04:05:16.679Z,6.65
2022-11-02T04:08:09.000Z,7.03
2022-11-02T04:10:56.960Z,7.50
2022-11-02T04:13:43.349Z,5.00
2022-11-02T04:16:12.210Z,9.70
2022-11-02T04:19:02.329Z,7.53
2022-11-02T04:21:31.521Z,7.25
2022-11-02T04:24:19.559Z,5.43
2022-11-02T04:26:49.018Z,4.78
2022-11-02T04:29:18.879Z,8.07
2022-11-02T04:31:47.539Z,6.25
2022-11-02T04:34:17.810Z,7.15
2022-11-02T04:36:46.040Z,8.98
2022-11-02T04:39:14.058Z,7.18
2022-11-02T04:41:42.652Z,5.47
2022-11-02T04:44:30.800Z,4.78
2022-11-02T04:47:09.369Z,8.63
2022-11-02T04:49:38.927Z,6.03
2022-11-02T04:52:11.179Z,8.32
2022-11-02T04:54:45.012Z,6.55
2022-11-02T04:57:13.049Z,8.18
2022-11-02T04:59:41.179Z,7.70
2022-11-02T05:02:09.357Z,5.90
2022-11-02T05:04:38.969Z,7.13
2022-11-02T05:07:08.944Z,8.25
2022-11-02T05:09:38.012Z,8.57
2022-11-02T05:12:07.112Z,5.35
2022-11-02T05:14:35.810Z,6.45
2022-11-02T05:17:04.343Z,6.20
2022-11-02T05:19:33.759Z,7.60
2022-11-02T05:22:04.713Z,5.13
2022-11-02T05:24:34.669Z,8.10
2022-11-02T05:27:02.929Z,5.13
2022-11-02T05:29:34.310Z,6.53
2022-11-02T05:32:02.553Z,6.70
2022-11-02T05:34:30.758Z,6.53
2022-11-02T05:37:00.090Z,7.80
2022-11-02T05:39:29.480Z,7.40
2022-11-02T05:41:57.851Z,6.10
2022-11-02T05:44:26.271Z,5.35
2022-11-02T05:46:54.630Z,7.03
2022-11-02T05:49:22.619Z,6.20
2022-11-02T05:51:50.651Z,7.65
2022-11-02T05:54:19.118Z,7.28
2022-11-02T05:56:48.638Z,7.60
2022-11-02T05:59:16.651Z,7.93
2022-11-02T06:01:44.761Z,7.00
2022-11-02T06:04:13.051Z,8.00
2022-11-02T06:06:41.169Z,7.90
2022-11-02T06:09:09.635Z,5.70
2022-11-02T06:11:37.621Z,8.25
2022-11-02T06:14:07.193Z,5.65
2022-11-02T06:16:35.249Z,7.93
2022-11-02T06:19:03.408Z,6.72
2022-11-02T06:21:31.339Z,6.13
2022-11-02T06:23:59.712Z,6.05
2022-11-02T06:26:27.738Z,7.95
2022-11-02T06:28:55.911Z,7.50
2022-11-02T06:31:25.390Z,6.70
2022-11-02T06:33:53.410Z,6.80
2022-11-02T06:36:21.255Z,9.10
2022-11-02T06:38:49.342Z,7.90
2022-11-02T06:41:17.692Z,7.25
2022-11-02T06:43:45.681Z,6.95
2022-11-02T06:46:13.693Z,7.55
2022-11-02T06:48:43.291Z,9.63
2022-11-02T06:51:11.231Z,5.95
2022-11-02T06:53:39.350Z,8.70
2022-11-02T06:56:07.921Z,9.90
2022-11-02T06:58:35.884Z,11.07
2022-11-02T07:01:07.113Z,6.60
2022-11-02T07:03:35.571Z,7.30
2022-11-02T07:06:09.662Z,7.53
2022-11-02T07:08:40.813Z,7.15
2022-11-02T07:11:08.824Z,7.13
2022-11-02T07:13:38.613Z,10.68
2022-11-02T07:16:07.101Z,9.13
2022-11-02T07:18:35.129Z,6.05
2022-11-02T07:21:04.611Z,8.07
2022-11-02T07:23:32.681Z,11.25
2022-11-02T07:26:02.601Z,7.05
2022-11-02T07:28:30.573Z,7.60
2022-11-02T07:30:58.511Z,6.18
2022-11-02T07:33:26.498Z,7.72
2022-11-02T07:35:54.351Z,7.28
2022-11-02T07:38:23.782Z,8.02
2022-11-02T07:40:51.881Z,9.05
2022-11-02T07:43:19.761Z,8.65
2022-11-02T07:46:13.974Z,7.07
2022-11-02T07:48:41.932Z,9.90
2022-11-02T07:51:11.512Z,7.13
2022-11-02T07:53:41.072Z,6.78
2022-11-02T07:56:09.121Z,6.75
2022-11-02T07:58:37.212Z,9.75
2022-11-02T08:01:05.412Z,8.02
2022-11-02T08:03:33.502Z,9.25
2022-11-02T08:06:03.445Z,10.63
2022-11-02T08:08:31.602Z,7.07
2022-11-02T08:11:05.723Z,7.70
2022-11-02T08:13:34.399Z,7.88
2022-11-02T08:16:02.401Z,7.82
2022-11-02T08:18:31.602Z,8.98
2022-11-02T08:21:00.159Z,9.77
2022-11-02T08:23:28.321Z,5.57
2022-11-02T08:26:00.812Z,8.68
2022-11-02T08:28:32.302Z,8.73
2022-11-02T08:31:00.564Z,11.05
2022-11-02T08:33:28.532Z,6.47
2022-11-02T08:36:03.364Z,14.38
2022-11-02T08:38:31.492Z,9.27
2022-11-02T08:41:00.902Z,10.55
2022-11-02T08:43:29.002Z,11.02
2022-11-02T08:46:16.344Z,8.15
2022-11-02T08:48:45.512Z,7.43
2022-11-02T08:51:13.654Z,8.13
2022-11-02T08:53:44.681Z,5.97
2022-11-02T08:56:17.043Z,7.82
2022-11-02T08:58:44.991Z,10.20
2022-11-02T09:01:13.100Z,8.43
2022-11-02T09:03:41.052Z,11.70
2022-11-02T09:06:09.142Z,8.75
2022-11-02T09:08:37.074Z,9.02
2022-11-02T09:11:05.622Z,9.13
2022-11-02T09:13:35.251Z,10.80
2022-11-02T09:16:03.453Z,8.75
2022-11-02T09:18:31.734Z,10.88
2022-11-02T09:21:02.399Z,9.88
2022-11-02T09:23:30.543Z,9.48
2022-11-02T09:25:59.412Z,8.48
2022-11-02T09:28:27.473Z,7.45
2022-11-02T09:30:56.805Z,9.07
2022-11-02T09:33:24.805Z,8.95
2022-11-02T09:35:52.883Z,9.80
2022-11-02T09:38:20.903Z,8.40
2022-11-02T09:43:40.433Z,8.23
2022-11-02T09:46:12.707Z,9.15
2022-11-02T09:48:43.754Z,9.38
2022-11-02T09:51:16.663Z,5.70
2022-11-02T09:53:53.972Z,7.55
2022-11-02T09:59:00.492Z,9.70
2022-11-02T10:01:46.189Z,8.45
2022-11-02T10:04:36.084Z,9.98
2022-11-02T10:07:12.183Z,35.45
2022-11-02T10:09:47.023Z,12.23
2022-11-02T10:12:21.675Z,8.32
2022-11-02T10:14:57.273Z,9.75
2022-11-02T10:17:30.412Z,8.55
2022-11-02T10:20:01.694Z,8.48
2022-11-02T10:22:35.603Z,9.38
2022-11-02T10:25:06.264Z,10.98
2022-11-02T10:27:38.536Z,11.98
2022-11-02T10:30:11.568Z,8.95
2022-11-02T10:35:37.095Z,8.77
2022-11-02T10:38:18.347Z,7.63
2022-11-02T10:41:06.840Z,5.40
2022-11-02T10:43:51.800Z,10.15
2022-11-02T10:46:42.470Z,5.53
2022-11-02T10:49:19.788Z,6.97
2022-11-02T10:51:47.988Z,4.32
2022-11-02T10:54:20.529Z,9.13
2022-11-02T10:56:54.029Z,6.03
2022-11-02T10:59:28.974Z,4.60
2022-11-02T11:02:15.729Z,4.60
2022-11-02T11:04:45.878Z,5.28
2022-11-02T11:07:18.029Z,7.07
2022-11-02T11:09:54.378Z,5.47
2022-11-02T11:12:28.988Z,6.70
2022-11-02T11:20:38.997Z,4.68
2022-11-02T11:23:25.578Z,4.68
2022-11-02T11:26:01.821Z,6.13
2022-11-02T11:28:33.088Z,4.18
2022-11-02T11:31:16.752Z,5.65
2022-11-02T11:33:51.170Z,4.13
2022-11-02T11:36:31.171Z,3.15
2022-11-02T11:39:01.257Z,3.47
2022-11-02T11:41:32.027Z,3.10
2022-11-02T11:44:02.405Z,3.13
2022-11-02T11:46:41.723Z,5.78
2022-11-02T11:49:31.120Z,4.13
2022-11-02T11:52:06.234Z,3.28
2022-11-02T11:54:35.216Z,4.80
2022-11-02T11:57:24.195Z,6.25
2022-11-02T11:59:53.338Z,5.50
2022-11-02T12:02:27.800Z,5.82
2022-11-02T12:05:01.873Z,3.95
2022-11-02T12:08:00.090Z,5.88
2022-11-02T12:10:52.276Z,4.05
2022-11-02T12:13:37.360Z,3.58
2022-11-02T12:16:15.729Z,7.40
2022-11-02T12:19:00.620Z,3.88
2022-11-02T12:21:50.626Z,4.55
2022-11-02T12:24:42.971Z,4.63
2022-11-02T12:27:27.846Z,5.22
2022-11-02T12:30:11.036Z,7.20
2022-11-02T12:32:57.953Z,6.03
2022-11-02T12:38:14.667Z,5.43
2022-11-02T12:40:55.351Z,8.02
2022-11-02T12:43:42.117Z,4.88
2022-11-02T12:49:36.405Z,6.15
2022-11-02T12:52:14.279Z,6.57
2022-11-02T12:54:46.277Z,4.65
2022-11-02T12:57:19.236Z,6.15
2022-11-02T12:59:55.880Z,4.22
2022-11-02T13:02:29.690Z,3.65
2022-11-02T13:05:03.652Z,5.57
2022-11-02T13:07:37.726Z,3.47
2022-11-02T13:10:08.588Z,5.03
2022-11-02T13:12:39.195Z,4.28
2022-11-02T13:15:13.839Z,5.55
2022-11-02T13:17:46.486Z,8.48
2022-11-02T13:20:19.767Z,5.55
2022-11-02T13:22:54.647Z,4.57
2022-11-02T13:25:28.237Z,4.38
2022-11-02T13:28:05.433Z,4.43
2022-11-02T13:30:35.456Z,6.80
2022-11-02T13:33:05.746Z,4.95
2022-11-02T13:35:35.586Z,6.47
2022-11-02T13:38:07.489Z,6.32
2022-11-02T13:40:42.811Z,5.97
2022-11-02T13:43:35.816Z,4.68
2022-11-02T13:46:40.388Z,5.03
2022-11-02T13:49:16.281Z,7.25
2022-11-02T13:51:46.947Z,5.95
2022-11-02T13:54:19.937Z,7.47
2022-11-02T13:56:53.526Z,5.53
2022-11-02T13:59:28.160Z,7.00
2022-11-02T14:01:57.847Z,6.60
2022-11-02T14:04:28.356Z,5.15
2022-11-02T14:06:59.626Z,4.85
2022-11-02T14:09:36.046Z,8.88
2022-11-02T14:12:43.699Z,6.35
2022-11-02T14:15:42.741Z,6.20
2022-11-02T14:18:31.444Z,6.93
2022-11-02T14:21:20.187Z,6.97
2022-11-02T14:23:48.726Z,6.88
2022-11-02T14:26:32.941Z,4.57
2022-11-02T14:29:24.695Z,7.22
2022-11-02T14:32:03.141Z,6.03
2022-11-02T14:34:55.097Z,4.10
2022-11-02T14:37:40.948Z,6.53
2022-11-02T14:40:23.496Z,6.90
2022-11-02T14:43:10.431Z,5.20
2022-11-02T14:45:52.681Z,4.65
2022-11-02T14:48:22.727Z,5.72
2022-11-02T14:51:15.394Z,8.10
2022-11-02T14:53:43.663Z,6.82
2022-11-02T14:56:11.678Z,5.45
2022-11-02T14:58:47.977Z,4.65
2022-11-02T15:01:18.190Z,7.55
2022-11-02T15:03:48.838Z,5.78
2022-11-02T15:06:21.679Z,5.38
2022-11-02T15:08:52.993Z,8.13
2022-11-02T15:11:46.913Z,6.35
2022-11-02T15:14:54.936Z,7.97
2022-11-02T15:23:30.332Z,6.25
2022-11-02T15:26:00.737Z,6.38
2022-11-02T15:28:32.836Z,5.95
2022-11-02T15:31:05.357Z,5.53
2022-11-02T15:33:37.337Z,4.57
2022-11-02T15:36:13.477Z,6.43
2022-11-02T15:38:41.657Z,4.03
2022-11-02T15:41:23.222Z,5.22
2022-11-02T15:44:34.057Z,4.88
2022-11-02T15:47:11.547Z,6.30
2022-11-02T15:50:03.527Z,4.80
2022-11-02T15:53:16.574Z,5.28
2022-11-02T15:55:48.528Z,6.03
2022-11-02T15:58:28.700Z,5.18
2022-11-02T16:01:18.055Z,5.38
2022-11-02T16:03:51.130Z,5.40
2022-11-02T16:06:26.598Z,6.75
2022-11-02T16:08:57.756Z,8.77
2022-11-02T16:11:25.892Z,5.72
2022-11-02T16:14:08.487Z,5.95
2022-11-02T16:16:47.680Z,7.43
2022-11-02T16:19:20.660Z,7.00
2022-11-02T16:21:49.395Z,7.85
2022-11-02T16:24:19.716Z,7.40
2022-11-02T16:26:48.866Z,10.07
2022-11-02T16:29:26.227Z,7.38
2022-11-02T16:31:54.437Z,6.10
2022-11-02T16:34:25.766Z,9.77
2022-11-02T16:36:54.076Z,9.13
2022-11-02T16:39:27.138Z,8.50
2022-11-02T16:41:57.618Z,8.52
2022-11-02T16:44:27.729Z,8.23
2022-11-02T16:46:58.777Z,10.10
2022-11-02T16:49:28.581Z,11.23
2022-11-02T16:51:58.487Z,6.93
2022-11-02T16:54:42.499Z,12.38
2022-11-02T16:57:17.447Z,12.20
2022-11-02T16:59:52.582Z,11.35
2022-11-02T17:02:32.470Z,15.18
2022-11-02T17:05:05.864Z,10.48
2022-11-02T17:07:39.496Z,19.05
2022-11-02T17:10:19.360Z,14.60
2022-11-02T17:12:50.021Z,17.40
2022-11-02T17:15:20.479Z,15.57
2022-11-02T17:17:48.628Z,17.52
2022-11-02T17:20:23.055Z,17.90
2022-11-02T17:22:57.416Z,15.68
2022-11-02T17:25:29.236Z,19.55
2022-11-02T17:27:58.707Z,17.35
2022-11-02T17:30:46.916Z,17.75
2022-11-02T17:33:27.486Z,21.52
2022-11-02T17:35:57.310Z,16.25
2022-11-02T17:38:27.318Z,15.52
2022-11-02T17:40:59.278Z,22.85
2022-11-02T17:43:27.706Z,22.48
2022-11-02T17:45:56.878Z,20.10
2022-11-02T17:48:25.229Z,23.30
2022-11-02T17:50:54.958Z,19.67
2022-11-02T17:53:24.418Z,18.75
2022-11-02T17:55:52.786Z,18.33
2022-11-02T17:58:22.339Z,15.40
2022-11-02T18:00:52.552Z,17.67
2022-11-02T18:03:24.337Z,15.90
2022-11-02T18:05:59.856Z,15.30
2022-11-02T18:08:28.638Z,16.67
2022-11-02T18:10:56.847Z,12.93
2022-11-02T18:13:26.535Z,11.30
2022-11-02T18:15:54.606Z,9.68
2022-11-02T18:18:23.036Z,10.77
2022-11-02T18:20:51.098Z,11.02
2022-11-02T18:23:20.064Z,10.02
2022-11-02T18:25:48.266Z,10.85
2022-11-02T18:28:16.206Z,9.65
2022-11-02T18:30:45.960Z,9.32
2022-11-02T18:33:14.519Z,9.02
2022-11-02T18:35:43.123Z,10.98
2022-11-02T18:38:11.998Z,12.15
2022-11-02T18:40:40.091Z,9.27
2022-11-02T18:43:08.688Z,10.80
2022-11-02T18:45:37.245Z,8.73
2022-11-02T18:48:07.900Z,7.65
2022-11-02T18:50:36.369Z,10.32
2022-11-02T18:53:04.471Z,10.73
2022-11-02T18:55:32.659Z,9.00
2022-11-02T18:58:00.740Z,9.38
2022-11-02T19:00:28.900Z,10.25
2022-11-02T19:02:57.031Z,8.95
2022-11-02T19:05:45.259Z,5.60
2022-11-02T19:08:31.711Z,8.23
2022-11-02T19:10:59.922Z,8.30
2022-11-02T19:13:28.022Z,7.50
2022-11-02T19:15:56.431Z,10.90
2022-11-02T19:18:24.469Z,6.80
2022-11-02T19:20:54.110Z,9.63
2022-11-02T19:23:22.161Z,10.98
2022-11-02T19:25:51.742Z,8.48
2022-11-02T19:28:19.901Z,7.80
2022-11-02T19:30:48.110Z,8.57
2022-11-02T19:33:16.431Z,10.52
2022-11-02T19:35:53.910Z,14.13
2022-11-02T19:38:23.871Z,10.00
2022-11-02T19:41:00.990Z,10.23
2022-11-02T19:43:30.965Z,7.97
2022-11-02T19:46:03.241Z,16.30
2022-11-02T19:48:32.591Z,10.20
2022-11-02T19:51:08.640Z,12.55
2022-11-02T19:53:39.130Z,13.18
2022-11-02T19:56:11.640Z,12.65
2022-11-02T19:58:41.080Z,11.48
2022-11-02T20:01:11.143Z,11.23
2022-11-02T20:03:40.012Z,10.50
2022-11-02T20:06:10.653Z,11.70
2022-11-02T20:08:41.022Z,10.35
2022-11-02T20:11:10.681Z,16.20
2022-11-02T20:13:41.250Z,13.60
2022-11-02T20:16:10.853Z,15.77
2022-11-02T20:18:40.746Z,17.60
2022-11-02T20:21:11.773Z,19.08
2022-11-02T20:23:43.600Z,14.73
2022-11-02T20:26:14.240Z,16.05
2022-11-02T20:28:45.691Z,13.98
2022-11-02T20:31:15.736Z,19.67
2022-11-02T20:33:44.523Z,16.90
2022-11-02T20:36:13.320Z,13.77
2022-11-02T20:38:43.900Z,15.25
2022-11-02T20:41:14.792Z,17.33
2022-11-02T20:43:44.389Z,16.70
2022-11-02T20:46:36.491Z,14.30
2022-11-02T20:49:19.796Z,17.33
2022-11-02T20:51:51.443Z,15.65
2022-11-02T20:54:22.711Z,17.75
2022-11-02T20:56:51.339Z,21.33
2022-11-02T20:59:19.570Z,16.27
2022-11-02T21:01:48.788Z,15.75
2022-11-02T21:04:20.968Z,15.52
2022-11-02T21:06:50.622Z,13.95
2022-11-02T21:09:20.503Z,13.88
2022-11-02T21:12:08.643Z,16.27
2022-11-02T21:14:37.082Z,14.82
2022-11-02T21:17:07.000Z,15.38
2022-11-02T21:19:35.423Z,12.82
2022-11-02T21:22:03.509Z,13.52
2022-11-02T21:24:33.140Z,11.52
2022-11-02T21:27:01.250Z,13.85
2022-11-02T21:29:29.441Z,13.52
2022-11-02T21:31:57.440Z,13.02
2022-11-02T21:34:25.621Z,14.90
2022-11-02T21:36:54.071Z,13.77
2022-11-02T21:39:22.441Z,11.98
2022-11-02T21:41:52.002Z,13.82
2022-11-02T21:44:20.360Z,11.48
2022-11-02T21:46:50.542Z,12.93
2022-11-02T21:49:19.161Z,10.77
2022-11-02T21:51:47.728Z,11.38
2022-11-02T21:54:16.281Z,9.73
2022-11-02T21:56:46.534Z,8.75
2022-11-02T21:59:16.241Z,10.18
2022-11-02T22:01:48.692Z,8.02
2022-11-02T22:04:21.830Z,8.73
2022-11-02T22:06:50.886Z,9.95
2022-11-02T22:09:19.406Z,10.80
2022-11-02T22:11:48.122Z,7.85
2022-11-02T22:14:17.895Z,8.68
2022-11-02T22:16:45.989Z,8.82
2022-11-02T22:19:15.625Z,13.57
2022-11-02T22:21:45.055Z,15.07
2022-11-02T22:24:13.442Z,11.52
2022-11-02T22:26:42.151Z,15.95
2022-11-02T22:29:13.317Z,16.42
2022-11-02T22:31:42.976Z,9.75
2022-11-02T22:34:12.478Z,12.02
2022-11-02T22:36:42.447Z,10.95
2022-11-02T22:39:14.836Z,8.55
2022-11-02T22:41:44.326Z,10.35
2022-11-02T22:44:14.635Z,8.70
2022-11-02T22:46:45.575Z,7.75
2022-11-02T22:49:16.765Z,8.93
2022-11-02T22:51:46.652Z,9.63
2022-11-02T22:54:16.547Z,7.97
2022-11-02T22:56:45.536Z,9.32
2022-11-02T22:59:14.089Z,9.52
2022-11-02T23:01:44.188Z,8.43
2022-11-02T23:04:13.155Z,8.25
2022-11-02T23:06:41.306Z,8.40
2022-11-02T23:09:12.474Z,10.73
2022-11-02T23:11:40.545Z,8.68
2022-11-02T23:14:09.806Z,10.23
2022-11-02T23:16:39.444Z,8.30
2022-11-02T23:19:25.332Z,9.95
2022-11-02T23:22:15.172Z,10.88
2022-11-02T23:25:03.680Z,10.60
2022-11-02T23:27:32.271Z,8.48
2022-11-02T23:30:19.019Z,14.07
2022-11-02T23:32:47.141Z,10.05
2022-11-02T23:35:35.264Z,13.50
2022-11-02T23:38:05.282Z,10.63
2022-11-02T23:40:33.744Z,9.80
2022-11-02T23:43:01.821Z,10.57
2022-11-02T23:45:30.181Z,10.15
2022-11-02T23:47:58.220Z,11.88
2022-11-02T23:50:49.230Z,13.60
2022-11-02T23:53:37.520Z,11.45
2022-11-02T23:56:25.810Z,9.73
2022-11-02T23:59:06.625Z,10.02
